Time;durP1;ratioP1;P1;durP2;ratioP2;P2;SDS_P1;SDS_P2;PMS_P1;PMS_P2;Temp;Humidity;BMP_temperature;BMP_pressure;BME280_temperature;BME280_humidity;BME280_pressure;Samples;Min_cycle;Max_cycle;Signal;HPM_P1;HPM_P2
2022/11/10 05:07:47;;;;;;;45.12;24.52;;;;;;;12.30;93.79;101021.50;5614549;31;80467;-56
2022/11/10 05:11:09;;;;;;;39.95;22.35;;;;;;;12.30;93.79;101021.50;5587840;31;35336;-57
2022/11/10 05:14:30;;;;;;;38.50;22.48;;;;;;;11.95;97.85;101019.75;5603571;31;34430;-57
2022/11/10 05:17:52;;;;;;;36.75;21.73;;;;;;;11.88;93.34;101022.72;5602743;31;34428;-56
2022/11/10 05:21:13;;;;;;;33.63;21.75;;;;;;;11.94;93.11;101015.44;5603225;31;34535;-56
2022/11/10 05:24:33;;;;;;;33.72;20.83;;;;;;;12.08;94.42;101031.78;5603662;31;34510;-56
2022/11/10 05:27:54;;;;;;;34.88;20.30;;;;;;;12.17;91.06;101027.47;5590995;31;34355;-56
2022/11/10 05:31:14;;;;;;;34.25;21.02;;;;;;;12.27;89.00;101034.69;5593436;31;35374;-56
2022/11/10 05:34:35;;;;;;;32.60;20.20;;;;;;;12.28;88.41;101034.41;5602536;31;35345;-57
2022/11/10 05:37:56;;;;;;;35.38;20.67;;;;;;;12.29;89.48;101040.59;5603453;31;34384;-56
2022/11/10 05:41:16;;;;;;;33.92;21.10;;;;;;;12.14;92.24;101039.56;5603034;31;35431;-57
2022/11/10 05:44:37;;;;;;;34.00;20.45;;;;;;;12.12;89.47;101046.28;5595338;31;34452;-57
2022/11/10 05:47:57;;;;;;;37.25;22.20;;;;;;;12.17;87.16;101060.53;5598979;31;34532;-57
2022/11/10 05:51:18;;;;;;;35.22;20.67;;;;;;;12.16;87.82;101064.31;5598500;31;34483;-57
2022/11/10 05:54:39;;;;;;;32.95;20.27;;;;;;;12.31;86.33;101070.69;5602401;31;35365;-57
2022/11/10 05:57:59;;;;;;;35.20;22.05;;;;;;;12.14;87.82;101063.75;5601522;31;34474;-57
2022/11/10 06:01:20;;;;;;;32.58;19.90;;;;;;;12.19;87.00;101085.25;5600694;31;34548;-57
2022/11/10 06:04:41;;;;;;;35.47;23.80;;;;;;;12.23;88.00;101082.81;5601033;31;33914;-56
2022/11/10 06:08:03;;;;;;;36.00;19.77;;;;;;;12.31;93.67;101087.63;5598655;31;34456;-57
2022/11/10 06:11:24;;;;;;;36.78;22.13;;;;;;;12.32;88.27;101094.63;5598469;31;35431;-57
2022/11/10 06:14:45;;;;;;;37.95;21.80;;;;;;;12.34;88.75;101103.22;5595523;31;33737;-56
2022/11/10 06:18:05;;;;;;;37.25;21.77;;;;;;;12.42;88.36;101110.72;5579853;31;35427;-57
2022/11/10 06:21:26;;;;;;;36.42;21.35;;;;;;;12.40;86.13;101112.06;5577035;31;34488;-57
2022/11/10 06:24:47;;;;;;;35.03;20.98;;;;;;;12.35;87.38;101118.28;5575386;31;34312;-57
2022/11/10 06:28:09;;;;;;;32.70;21.08;;;;;;;12.54;83.18;101117.66;5588845;31;35522;-56
2022/11/10 06:31:30;;;;;;;32.42;20.40;;;;;;;12.43;84.87;101130.34;5583025;31;34454;-56
2022/11/10 06:34:50;;;;;;;32.83;20.62;;;;;;;12.33;84.30;101119.62;5585422;31;34234;-56
2022/11/10 06:38:17;;;;;;;41.55;22.48;;;;;;;12.40;83.21;101136.28;5569639;32;34415;-56
2022/11/10 06:41:37;;;;;;;36.35;21.17;;;;;;;12.36;83.52;101138.69;5579843;31;34646;-57
2022/11/10 06:44:58;;;;;;;37.22;22.70;;;;;;;12.28;85.75;101135.75;5585623;31;34467;-56
2022/11/10 06:48:18;;;;;;;39.45;23.23;;;;;;;12.30;84.91;101152.44;5578944;31;35470;-57
2022/11/10 06:51:39;;;;;;;34.40;21.77;;;;;;;12.40;85.91;101149.72;5582064;31;35396;-57
2022/11/10 06:55:00;;;;;;;35.38;20.67;;;;;;;12.44;83.63;101166.91;5584954;31;34502;-57
2022/11/10 06:58:21;;;;;;;37.97;21.42;;;;;;;12.43;84.07;101168.00;5586447;31;35110;-57
2022/11/10 07:01:41;;;;;;;36.08;21.27;;;;;;;12.26;84.77;101164.81;5583527;31;34528;-56
2022/11/10 07:05:02;;;;;;;38.35;22.90;;;;;;;12.39;84.20;101170.44;5574351;31;35424;-57
2022/11/10 07:08:23;;;;;;;41.80;23.00;;;;;;;12.42;84.85;101179.84;5578112;31;34481;-57
2022/11/10 07:11:44;;;;;;;32.17;20.85;;;;;;;12.45;83.99;101182.78;5578180;31;34537;-56
2022/11/10 07:15:05;;;;;;;33.60;20.88;;;;;;;12.44;82.94;101189.22;5582318;31;34092;-57
2022/11/10 07:18:26;;;;;;;34.45;20.98;;;;;;;12.19;82.47;101187.41;5587102;31;34542;-57
2022/11/10 07:21:46;;;;;;;39.65;21.83;;;;;;;12.12;89.41;101194.09;5579319;31;34555;-57
2022/11/10 07:25:08;;;;;;;34.83;21.45;;;;;;;12.05;83.91;101201.62;5580330;31;34488;-56
2022/11/10 07:28:28;;;;;;;39.88;23.87;;;;;;;12.03;85.49;101201.94;5581015;31;34546;-57
2022/11/10 07:31:49;;;;;;;41.08;23.25;;;;;;;12.07;85.09;101204.88;5587512;31;34554;-56
2022/11/10 07:35:10;;;;;;;40.08;23.60;;;;;;;12.18;88.06;101215.34;5588109;31;35447;-57
2022/11/10 07:38:31;;;;;;;44.70;25.12;;;;;;;12.33;88.88;101211.03;5586421;31;34572;-57
2022/11/10 07:45:59;;;;;;;42.45;23.38;;;;;;;12.23;88.39;101217.22;5353708;33;32109;-56
2022/11/10 07:49:20;;;;;;;42.30;23.15;;;;;;;12.27;84.86;101231.75;5356285;33;34511;-55
2022/11/10 07:52:40;;;;;;;43.87;23.70;;;;;;;12.20;85.00;101231.22;5356725;33;34665;-56
2022/11/10 07:56:01;;;;;;;45.75;25.50;;;;;;;12.11;85.01;101238.19;5357218;33;34583;-56
2022/11/10 07:59:21;;;;;;;43.03;24.73;;;;;;;12.02;86.44;101237.13;5351756;33;34681;-56
2022/11/10 08:02:42;;;;;;;45.25;25.83;;;;;;;12.02;85.96;101235.25;5344777;33;34841;-56
2022/11/10 08:06:02;;;;;;;48.05;26.73;;;;;;;12.11;86.20;101238.19;5352777;33;35458;-56
2022/11/10 08:09:23;;;;;;;43.83;26.40;;;;;;;12.11;85.92;101247.06;5358516;33;35446;-55
2022/11/10 08:12:43;;;;;;;43.87;25.88;;;;;;;12.07;86.24;101246.00;5360717;33;35368;-55
2022/11/10 08:16:04;;;;;;;44.63;26.58;;;;;;;12.20;85.79;101255.41;5360999;33;34587;-56
2022/11/10 08:19:25;;;;;;;46.33;26.92;;;;;;;12.21;86.24;101263.19;5360336;33;34481;-57
2022/11/10 08:22:46;;;;;;;43.38;25.27;;;;;;;12.22;85.98;101266.72;5346627;33;34572;-56
2022/11/10 08:26:06;;;;;;;42.83;26.15;;;;;;;12.30;84.81;101263.47;5357289;33;35409;-56
2022/11/10 08:29:27;;;;;;;44.47;25.52;;;;;;;12.31;84.39;101269.62;5345998;33;34556;-55
2022/11/10 08:32:47;;;;;;;45.58;27.13;;;;;;;12.39;84.66;101266.44;5354507;33;34669;-55
2022/11/10 08:36:08;;;;;;;45.63;26.37;;;;;;;12.31;84.91;101266.94;5350991;33;35335;-56
2022/11/10 08:39:29;;;;;;;50.30;28.20;;;;;;;12.22;84.26;101278.25;5360301;33;34285;-55
2022/11/10 08:43:00;;;;;;;48.53;26.85;;;;;;;12.17;85.14;101280.94;5355950;33;34639;-56
2022/11/10 08:46:20;;;;;;;48.55;28.60;;;;;;;12.19;85.23;101294.91;5343249;33;34222;-56
2022/11/10 08:49:41;;;;;;;45.25;27.13;;;;;;;12.31;85.45;101296.53;5343533;33;34469;-56
2022/11/10 08:53:03;;;;;;;44.08;26.95;;;;;;;12.41;84.29;101301.91;5332171;33;34614;-56
2022/11/10 08:56:24;;;;;;;41.97;26.30;;;;;;;12.35;83.61;101305.66;5333892;33;34565;-56
2022/11/10 08:59:45;;;;;;;41.55;26.02;;;;;;;12.25;84.04;101317.25;5341137;33;35363;-56
2022/11/10 09:03:10;;;;;;;45.58;26.23;;;;;;;12.35;82.65;101327.16;5340108;33;35355;-56
2022/11/10 09:06:30;;;;;;;40.30;25.20;;;;;;;12.59;86.62;101325.56;5337056;33;34629;-56
2022/11/10 09:09:51;;;;;;;39.28;25.33;;;;;;;12.72;82.16;101344.94;5332846;33;35497;-57
2022/11/10 09:13:26;;;;;;;43.93;27.03;;;;;;;12.81;81.42;101336.00;5335677;33;34378;-56
2022/11/10 09:16:50;;;;;;;45.45;24.92;;;;;;;12.85;81.01;101333.62;5339067;33;35399;-56
2022/11/10 09:20:11;;;;;;;43.45;25.95;;;;;;;13.02;81.24;101333.31;5337840;33;34483;-56
2022/11/10 09:23:32;;;;;;;40.83;24.85;;;;;;;13.00;81.87;101338.16;5342391;33;34489;-56
2022/11/10 09:26:52;;;;;;;39.10;24.65;;;;;;;13.10;81.85;101351.59;5340462;33;35358;-57
2022/11/10 09:30:13;;;;;;;40.12;24.92;;;;;;;13.16;79.57;101345.13;5339929;33;34826;-56
2022/11/10 09:33:38;;;;;;;38.65;24.33;;;;;;;13.30;81.47;101348.84;5337594;33;35361;-56
2022/11/10 09:36:58;;;;;;;40.30;26.08;;;;;;;13.21;79.34;101337.03;5341591;33;34618;-56
2022/11/10 09:40:49;;;;;;;41.25;25.73;;;;;;;13.29;78.52;101341.06;5340422;33;34626;-55
2022/11/10 09:44:26;;;;;;;40.40;24.73;;;;;;;13.35;79.43;101338.09;5339064;33;34544;-56
2022/11/10 09:47:57;;;;;;;41.00;25.55;;;;;;;13.32;80.10;101346.72;5336091;33;35489;-56
2022/11/10 09:51:24;;;;;;;36.53;22.98;;;;;;;13.40;78.99;101354.19;5335593;33;35414;-56
2022/11/10 09:54:53;;;;;;;35.72;23.73;;;;;;;13.29;77.67;101359.91;5341017;33;34491;-55
2022/11/10 09:58:15;;;;;;;39.08;21.98;;;;;;;13.29;78.14;101357.22;5339661;33;35463;-56
2022/11/10 10:01:49;;;;;;;37.63;22.48;;;;;;;13.30;78.41;101366.91;5337438;33;35460;-56
2022/11/10 10:05:32;;;;;;;38.67;24.37;;;;;;;13.42;78.58;101367.41;5340771;33;34936;-57
2022/11/10 10:09:37;;;;;;;33.92;21.45;;;;;;;13.27;78.80;101376.34;5338053;33;34575;-57
2022/11/10 10:13:18;;;;;;;38.30;23.95;;;;;;;13.29;79.64;101355.34;5325242;33;34492;-56
2022/11/10 10:16:45;;;;;;;38.85;23.33;;;;;;;13.28;79.76;101369.09;5327765;33;34482;-57
2022/11/10 10:20:39;;;;;;;40.03;24.15;;;;;;;13.36;78.63;101381.97;5338172;33;35398;-56
2022/11/10 10:24:01;;;;;;;34.65;21.50;;;;;;;13.47;81.43;101377.34;5335254;33;33930;-56
2022/11/10 10:27:39;;;;;;;39.38;22.90;;;;;;;13.52;80.56;101377.34;5340146;33;36778;-56
2022/11/10 10:31:13;;;;;;;35.22;22.17;;;;;;;13.59;78.05;101378.66;5343918;33;35347;-56
2022/11/10 10:34:35;;;;;;;36.17;21.60;;;;;;;13.63;78.63;101387.00;5340780;33;34469;-56
2022/11/10 10:37:56;;;;;;;36.65;22.48;;;;;;;13.72;77.69;101381.84;5342539;33;34564;-56
2022/11/10 10:41:27;;;;;;;36.53;23.42;;;;;;;13.77;76.63;101376.41;5328792;33;34594;-56
2022/11/10 10:45:20;;;;;;;35.92;22.05;;;;;;;13.87;77.31;101376.34;5333608;33;35403;-56
2022/11/10 10:48:41;;;;;;;39.60;22.23;;;;;;;13.78;76.91;101383.44;5334800;33;34518;-56
2022/11/10 10:52:06;;;;;;;34.75;22.50;;;;;;;13.75;78.01;101382.09;5343006;33;34681;-56
2022/11/10 10:55:28;;;;;;;38.30;23.45;;;;;;;13.85;78.26;101384.75;5331103;33;35513;-56
2022/11/10 10:58:53;;;;;;;37.03;23.23;;;;;;;13.97;76.71;101378.19;5341130;33;35459;-56
2022/11/10 11:02:22;;;;;;;38.70;24.02;;;;;;;13.99;76.49;101390.31;5343872;33;34625;-56
2022/11/10 11:05:58;;;;;;;35.35;23.60;;;;;;;13.99;77.31;101386.81;5334597;33;35430;-56
2022/11/10 11:09:24;;;;;;;40.12;25.98;;;;;;;14.06;77.65;101382.72;5332976;33;35417;-57
2022/11/10 11:12:44;;;;;;;46.05;27.27;;;;;;;14.12;77.19;101385.41;5340099;33;35414;-56
2022/11/10 11:16:08;;;;;;;45.83;28.08;;;;;;;14.07;78.08;101387.06;5341391;33;34632;-56
2022/11/10 11:19:35;;;;;;;40.42;26.00;;;;;;;14.10;78.57;101385.66;5341453;33;35460;-56
2022/11/10 11:23:17;;;;;;;58.00;28.42;;;;;;;14.18;78.67;101405.88;5339281;33;34592;-56
2022/11/10 11:27:04;;;;;;;45.05;28.42;;;;;;;14.27;80.13;101418.47;5337770;33;34597;-57
2022/11/10 11:30:46;;;;;;;43.08;27.80;;;;;;;14.29;81.94;101420.88;5336694;33;34522;-56
2022/11/10 11:34:12;;;;;;;46.47;29.08;;;;;;;14.28;79.66;101419.28;5340991;33;34634;-56
2022/11/10 11:37:52;;;;;;;44.08;27.98;;;;;;;14.30;79.56;101412.53;5343508;33;34613;-56
2022/11/10 11:41:22;;;;;;;40.58;26.90;;;;;;;14.19;77.99;101410.16;5337902;33;34543;-57
2022/11/10 11:45:06;;;;;;;44.17;28.10;;;;;;;14.17;80.94;101415.84;5339352;33;34630;-56
2022/11/10 11:48:50;;;;;;;44.65;27.45;;;;;;;14.15;78.55;101415.31;5335780;33;35433;-56
2022/11/10 11:52:26;;;;;;;45.03;28.27;;;;;;;14.08;79.44;101415.63;5335698;33;34558;-56
2022/11/10 11:56:07;;;;;;;42.47;27.20;;;;;;;14.10;78.69;101426.13;5332304;33;34580;-56
2022/11/10 11:59:47;;;;;;;42.30;26.50;;;;;;;14.03;78.74;101423.72;5334605;33;34599;-56
2022/11/10 12:03:35;;;;;;;43.72;27.40;;;;;;;14.08;79.51;101425.59;5339894;33;34247;-56
2022/11/10 12:07:34;;;;;;;39.90;26.37;;;;;;;13.95;78.39;101428.91;5336724;33;34628;-56
2022/11/10 12:11:23;;;;;;;44.22;25.10;;;;;;;13.97;77.54;101427.56;5327477;33;35495;-56
2022/11/10 12:15:00;;;;;;;42.62;26.75;;;;;;;13.89;77.61;101435.41;5334044;33;34617;-57
2022/11/10 12:18:36;;;;;;;45.08;25.75;;;;;;;13.78;78.12;101429.25;5342131;33;34610;-56
2022/11/10 12:22:31;;;;;;;40.12;25.50;;;;;;;13.87;77.84;101432.97;5339638;33;35397;-55
2022/11/10 12:26:11;;;;;;;40.42;24.42;;;;;;;13.84;80.12;101431.66;5334156;33;35394;-57
2022/11/10 12:29:54;;;;;;;40.20;24.42;;;;;;;13.83;78.02;101434.59;5340202;33;34502;-56
2022/11/10 12:33:34;;;;;;;39.38;25.17;;;;;;;13.80;77.69;101452.12;5340275;33;34691;-56
2022/11/10 12:36:56;;;;;;;36.70;24.70;;;;;;;13.76;76.78;101455.66;5338902;33;34628;-56
2022/11/10 12:40:26;;;;;;;40.83;24.63;;;;;;;13.80;75.88;101445.94;5343281;33;35096;-55
2022/11/10 12:44:06;;;;;;;43.53;25.08;;;;;;;13.80;79.11;101462.09;5342669;33;34633;-56
2022/11/10 12:47:34;;;;;;;38.88;23.50;;;;;;;13.80;78.09;101465.59;5342134;33;34513;-56
2022/11/10 12:51:07;;;;;;;41.08;24.95;;;;;;;13.78;77.35;101462.38;5332524;33;35523;-56
2022/11/10 12:54:28;;;;;;;43.30;26.02;;;;;;;13.54;78.48;101459.50;5342097;33;36405;-56
2022/11/10 12:57:49;;;;;;;40.90;25.90;;;;;;;13.50;79.60;101471.88;5339792;33;34522;-55
2022/11/10 13:01:17;;;;;;;52.20;26.62;;;;;;;13.59;82.99;101469.47;5342749;33;34237;-56
2022/11/10 13:04:37;;;;;;;45.58;26.67;;;;;;;13.47;82.50;101483.22;5342685;33;35138;-56
2022/11/10 13:08:18;;;;;;;43.17;26.55;;;;;;;13.51;80.40;101483.47;5342741;33;34642;-56
2022/11/10 13:11:41;;;;;;;46.28;27.15;;;;;;;13.46;84.34;101468.13;5340948;33;35482;-56
2022/11/10 13:15:36;;;;;;;43.13;25.55;;;;;;;13.52;80.56;101464.34;5338396;33;34582;-56
2022/11/10 13:18:57;;;;;;;46.75;26.70;;;;;;;13.54;80.61;101475.66;5339563;33;34538;-56
2022/11/10 13:22:33;;;;;;;40.55;25.67;;;;;;;13.58;82.12;101475.94;5341675;33;35643;-56
2022/11/10 13:25:55;;;;;;;42.42;25.52;;;;;;;13.62;87.66;101485.88;5331121;33;34558;-56
2022/11/10 13:29:34;;;;;;;42.60;26.70;;;;;;;13.49;85.53;101489.12;5345078;33;34537;-56
2022/11/10 13:33:23;;;;;;;40.33;24.92;;;;;;;13.52;84.54;101488.59;5345285;33;34666;-56
2022/11/10 13:36:47;;;;;;;40.75;24.87;;;;;;;13.64;88.97;101482.91;5345206;33;34595;-56
2022/11/10 13:40:23;;;;;;;45.92;24.50;;;;;;;13.63;91.53;101495.56;5344802;33;34647;-56
2022/11/10 13:43:53;;;;;;;45.25;28.87;;;;;;;13.61;88.85;101488.84;5345488;33;34518;-56
2022/11/10 13:47:33;;;;;;;42.97;26.20;;;;;;;13.62;87.85;101496.66;5345399;33;34577;-56
2022/11/10 13:51:19;;;;;;;41.55;26.90;;;;;;;13.74;83.58;101496.38;5344965;33;35481;-56
2022/11/10 13:54:52;;;;;;;;;;;;;;;13.68;80.75;101502.84;5345631;33;35388;-56
2022/11/10 13:58:33;;;;;;;41.72;24.77;;;;;;;13.64;80.84;101509.84;5345498;33;34826;-55
2022/11/10 14:02:31;;;;;;;38.25;24.65;;;;;;;13.71;83.73;101509.56;5345403;33;34650;-56
2022/11/10 14:05:58;;;;;;;40.97;25.27;;;;;;;13.66;83.49;101515.78;5345490;33;34597;-56
2022/11/10 14:09:34;;;;;;;48.53;27.95;;;;;;;13.86;82.48;101510.31;5345010;33;34579;-55
2022/11/10 14:13:09;;;;;;;38.80;25.37;;;;;;;13.73;80.82;101526.28;5344717;33;35166;-56
2022/11/10 14:16:31;;;;;;;38.88;22.25;;;;;;;13.85;77.65;101527.59;5345137;33;34568;-56
2022/11/10 14:19:52;;;;;;;38.67;23.38;;;;;;;13.81;83.76;101528.44;5345355;33;34601;-56
2022/11/10 14:23:35;;;;;;;38.80;23.58;;;;;;;13.89;77.71;101527.03;5345225;33;34315;-56
2022/11/10 14:26:59;;;;;;;39.65;22.58;;;;;;;13.84;79.08;101531.38;5344680;33;35419;-56
2022/11/10 14:30:23;;;;;;;39.90;22.92;;;;;;;13.75;82.49;101534.91;5344674;33;34537;-56
2022/11/10 14:33:52;;;;;;;37.42;22.62;;;;;;;13.72;78.09;101538.13;5343911;33;35509;-56
2022/11/10 14:37:22;;;;;;;37.67;22.27;;;;;;;13.70;80.75;101542.97;5343942;33;34572;-56
2022/11/10 14:40:42;;;;;;;42.33;26.10;;;;;;;13.73;87.54;101547.81;5344757;33;35491;-56
2022/11/10 14:44:10;;;;;;;45.55;24.90;;;;;;;13.71;81.20;101558.06;5344382;33;35197;-55
2022/11/10 14:47:30;;;;;;;43.83;22.80;;;;;;;13.67;83.21;101554.31;5344795;33;34601;-56
2022/11/10 14:50:52;;;;;;;36.72;23.25;;;;;;;13.69;81.44;101561.03;5344644;33;34761;-56
2022/11/10 14:54:22;;;;;;;36.95;22.37;;;;;;;13.67;77.66;101557.00;5344717;33;34611;-56
2022/11/10 14:58:13;;;;;;;35.88;21.75;;;;;;;13.63;82.68;101556.72;5344835;33;35373;-56
2022/11/10 15:01:37;;;;;;;37.17;23.10;;;;;;;13.57;78.73;101564.00;5344604;33;34996;-56
2022/11/10 15:04:58;;;;;;;40.40;24.15;;;;;;;13.69;78.94;101563.75;5344261;33;34789;-56
2022/11/10 15:08:19;;;;;;;42.78;26.02;;;;;;;13.66;78.54;101566.16;5337152;33;35437;-56
2022/11/10 15:11:51;;;;;;;43.15;25.17;;;;;;;13.57;79.40;101561.31;5326444;33;34602;-56
2022/11/10 15:15:22;;;;;;;36.83;23.08;;;;;;;13.53;79.30;101570.22;5325857;33;35415;-56
2022/11/10 15:18:44;;;;;;;40.28;24.35;;;;;;;13.40;79.21;101576.97;5325585;33;34536;-56
2022/11/10 15:22:31;;;;;;;42.45;22.98;;;;;;;13.40;79.68;101577.75;5326675;33;34626;-56
2022/11/10 15:25:52;;;;;;;42.60;23.52;;;;;;;13.42;80.04;101579.41;5326395;33;34539;-56
2022/11/10 15:29:23;;;;;;;41.25;23.90;;;;;;;13.33;81.05;101579.13;5326125;33;34145;-56
2022/11/10 15:32:47;;;;;;;40.53;23.67;;;;;;;13.37;85.51;101586.37;5326287;33;34472;-56
2022/11/10 15:36:16;;;;;;;36.50;22.52;;;;;;;13.41;81.79;101594.75;5316030;33;35451;-56
2022/11/10 15:39:36;;;;;;;43.28;22.45;;;;;;;13.48;80.59;101589.91;5326278;33;34643;-55
2022/11/10 15:43:12;;;;;;;38.35;22.35;;;;;;;13.57;86.54;101601.72;5325864;33;34546;-56
2022/11/10 15:46:33;;;;;;;33.70;21.23;;;;;;;13.64;81.62;101593.37;5326375;33;34682;-56
2022/11/10 15:49:53;;;;;;;34.63;20.67;;;;;;;13.59;83.18;101607.66;5325378;33;34731;-56
2022/11/10 15:53:26;;;;;;;34.47;21.33;;;;;;;13.62;83.09;101615.22;5326436;33;35405;-56
2022/11/10 15:56:47;;;;;;;35.78;20.33;;;;;;;13.47;79.26;101617.09;5326582;33;35355;-56
2022/11/10 16:00:11;;;;;;;31.67;18.45;;;;;;;13.44;79.70;101623.81;5326401;33;34642;-56
2022/11/10 16:03:31;;;;;;;38.78;21.70;;;;;;;13.55;85.50;101624.66;5325493;33;35492;-56
2022/11/10 16:06:52;;;;;;;38.08;21.95;;;;;;;13.68;78.95;101626.00;5326145;33;34595;-56
2022/11/10 16:10:13;;;;;;;38.95;23.90;;;;;;;13.69;76.90;101631.09;5326350;33;34496;-56
2022/11/10 16:13:34;;;;;;;36.50;22.50;;;;;;;13.53;79.26;101642.97;5326590;33;34564;-55
2022/11/10 16:16:55;;;;;;;31.92;18.95;;;;;;;13.51;80.45;101651.31;5326289;33;34543;-56
2022/11/10 16:20:16;;;;;;;32.47;18.98;;;;;;;13.73;80.33;101640.25;5326419;33;35261;-56
2022/11/10 16:23:36;;;;;;;28.87;18.70;;;;;;;13.53;78.74;101651.03;5326346;33;34619;-57
2022/11/10 16:26:57;;;;;;;31.42;19.00;;;;;;;13.57;77.96;101655.59;5326398;33;34555;-56
2022/11/10 16:30:17;;;;;;;39.20;19.87;;;;;;;13.59;79.39;101648.06;5326223;33;34528;-56
2022/11/10 16:33:39;;;;;;;32.95;18.75;;;;;;;13.58;78.57;101662.62;5326186;33;34657;-56
2022/11/10 16:37:00;;;;;;;32.03;19.08;;;;;;;13.53;80.75;101668.00;5326299;33;34756;-55
2022/11/10 16:40:23;;;;;;;29.70;17.20;;;;;;;13.62;84.05;101662.91;5326137;33;34654;-56
2022/11/10 16:43:44;;;;;;;28.77;17.33;;;;;;;13.65;81.57;101670.44;5325874;33;35387;-56
2022/11/10 16:47:15;;;;;;;31.15;19.27;;;;;;;13.64;80.25;101671.50;5326042;33;35548;-56
2022/11/10 16:50:36;;;;;;;32.60;19.05;;;;;;;13.71;78.30;101682.03;5325813;33;34666;-56
2022/11/10 16:53:58;;;;;;;32.50;17.87;;;;;;;13.54;80.31;101690.38;5326000;33;34626;-53
2022/11/10 16:57:19;;;;;;;33.65;20.58;;;;;;;13.56;79.05;101699.00;5326080;33;34540;-53
2022/11/10 17:00:40;;;;;;;34.97;21.50;;;;;;;13.55;83.63;101705.47;5325606;33;34499;-53
